Time;durP1;ratioP1;P1;durP2;ratioP2;P2;SDS_P1;SDS_P2;PMS_P1;PMS_P2;Temp;Humidity;BMP_temperature;BMP_pressure;BME280_temperature;BME280_humidity;BME280_pressure;Samples;Min_cycle;Max_cycle;Signal;HPM_P1;HPM_P2
2021/10/09 00:01:09;;;;;;;4.30;3.70;;;11.40;1.00;;;;;;5090510;28;20263;-78
2021/10/09 00:03:36;;;;;;;4.97;4.45;;;11.40;1.00;;;;;;5081002;28;20209;-78
2021/10/09 00:06:03;;;;;;;5.68;3.65;;;11.50;1.00;;;;;;5092467;28;20205;-77
2021/10/09 00:08:31;;;;;;;5.30;4.20;;;11.60;1.00;;;;;;5092679;28;20274;-76
2021/10/09 00:10:59;;;;;;;4.23;3.83;;;11.60;1.00;;;;;;5093202;28;20218;-76
2021/10/09 00:13:26;;;;;;;4.80;3.57;;;11.70;1.00;;;;;;5092421;28;20206;-80
2021/10/09 00:15:53;;;;;;;5.80;4.43;;;11.70;1.00;;;;;;5093004;28;20563;-80
2021/10/09 00:18:21;;;;;;;5.00;3.97;;;11.60;1.00;;;;;;5091848;28;20210;-78
2021/10/09 00:20:48;;;;;;;6.37;4.23;;;11.70;1.00;;;;;;5092775;28;20250;-78
2021/10/09 00:23:15;;;;;;;5.28;4.20;;;11.70;1.00;;;;;;5091903;28;20205;-79
2021/10/09 00:25:42;;;;;;;4.80;4.17;;;11.70;1.00;;;;;;5092349;28;20738;-76
2021/10/09 00:28:09;;;;;;;4.33;3.97;;;11.80;1.00;;;;;;5092014;28;20649;-75
2021/10/09 00:30:36;;;;;;;4.50;3.70;;;11.80;1.00;;;;;;5092399;28;20738;-77
2021/10/09 00:33:03;;;;;;;5.50;3.97;;;11.80;1.00;;;;;;5092092;28;20202;-76
2021/10/09 00:35:31;;;;;;;7.43;4.15;;;11.90;1.00;;;;;;5091757;28;20266;-77
2021/10/09 00:37:58;;;;;;;6.68;3.55;;;11.90;1.00;;;;;;5091866;28;20677;-76
2021/10/09 00:40:25;;;;;;;4.78;4.35;;;11.90;1.00;;;;;;5092179;28;20259;-78
2021/10/09 00:42:52;;;;;;;5.20;3.97;;;11.90;1.00;;;;;;5091750;28;20213;-78
2021/10/09 00:45:19;;;;;;;4.60;4.03;;;11.90;1.00;;;;;;5092027;28;20213;-78
2021/10/09 00:47:46;;;;;;;5.93;4.00;;;12.00;1.00;;;;;;5091969;28;20212;-78
2021/10/09 00:50:13;;;;;;;4.27;3.87;;;12.00;1.00;;;;;;5091438;28;20205;-78
2021/10/09 00:52:45;;;;;;;6.15;4.45;;;12.00;1.00;;;;;;5083308;28;20208;-78
2021/10/09 00:55:12;;;;;;;6.93;4.75;;;12.10;1.00;;;;;;5091668;28;20270;-77
2021/10/09 00:57:40;;;;;;;5.13;4.38;;;12.10;1.00;;;;;;5091728;28;20209;-78
2021/10/09 01:00:09;;;;;;;7.32;4.13;;;12.10;1.00;;;;;;5091387;28;20636;-78
2021/10/09 01:02:37;;;;;;;5.60;5.00;;;12.10;1.00;;;;;;5091925;28;20206;-77
2021/10/09 01:05:05;;;;;;;5.50;4.00;;;12.10;1.00;;;;;;5091339;28;20240;-77
2021/10/09 01:07:32;;;;;;;5.55;4.55;;;12.10;1.00;;;;;;5091712;28;20206;-77
2021/10/09 01:10:02;;;;;;;8.48;4.57;;;12.20;1.00;;;;;;5091777;28;20589;-77
2021/10/09 01:12:29;;;;;;;7.38;4.32;;;12.20;1.00;;;;;;5091585;28;20209;-77
2021/10/09 01:14:56;;;;;;;4.07;3.67;;;12.20;1.00;;;;;;5091749;28;20326;-77
2021/10/09 01:17:23;;;;;;;5.07;4.07;;;12.20;1.00;;;;;;5090848;28;20251;-77
2021/10/09 01:19:50;;;;;;;6.30;5.40;;;12.20;1.00;;;;;;5091076;28;20214;-77
2021/10/09 01:22:18;;;;;;;4.47;3.80;;;12.20;1.00;;;;;;5090745;28;20209;-77
2021/10/09 01:24:45;;;;;;;6.38;4.30;;;12.20;1.00;;;;;;5091593;28;20201;-76
2021/10/09 01:27:16;;;;;;;5.80;3.90;;;12.20;1.00;;;;;;5090810;28;20278;-77
2021/10/09 01:29:43;;;;;;;5.25;3.85;;;12.20;1.00;;;;;;5091372;28;20304;-77
2021/10/09 01:32:10;;;;;;;5.43;4.63;;;12.10;1.00;;;;;;5091021;28;20201;-77
2021/10/09 01:34:37;;;;;;;5.15;4.65;;;12.10;1.00;;;;;;5090602;28;20205;-77
2021/10/09 01:37:04;;;;;;;6.72;4.38;;;12.10;1.00;;;;;;5091032;28;20201;-76
2021/10/09 01:39:33;;;;;;;3.90;3.50;;;12.00;1.00;;;;;;5090896;28;20750;-77
2021/10/09 01:41:59;;;;;;;4.27;3.33;;;11.90;1.00;;;;;;5091108;28;20221;-76
2021/10/09 01:44:27;;;;;;;7.13;4.00;;;11.80;1.00;;;;;;5091288;28;20205;-80
2021/10/09 01:46:54;;;;;;;4.05;3.65;;;11.70;1.00;;;;;;5090920;28;20610;-79
2021/10/09 01:49:21;;;;;;;4.53;3.57;;;11.60;1.00;;;;;;5089391;28;20769;-79
2021/10/09 01:51:48;;;;;;;5.30;3.80;;;11.60;1.00;;;;;;5091114;28;20275;-80
2021/10/09 01:54:14;;;;;;;3.83;3.35;;;11.50;1.00;;;;;;5090794;28;20209;-78
2021/10/09 01:56:43;;;;;;;4.30;3.60;;;11.40;1.00;;;;;;5090647;28;20198;-78
2021/10/09 01:59:10;;;;;;;7.57;3.87;;;11.30;1.00;;;;;;5090412;28;20266;-78
2021/10/09 02:01:37;;;;;;;4.90;3.80;;;11.30;1.00;;;;;;5090463;28;20259;-78
2021/10/09 02:04:05;;;;;;;5.82;4.22;;;11.10;1.00;;;;;;5081960;28;20210;-78
2021/10/09 02:06:32;;;;;;;4.50;3.87;;;11.10;1.00;;;;;;5084741;28;20270;-78
2021/10/09 02:08:59;;;;;;;3.67;3.38;;;11.10;1.00;;;;;;5091007;28;20298;-77
2021/10/09 02:11:27;;;;;;;4.37;3.97;;;11.00;1.00;;;;;;5090738;28;20206;-78
2021/10/09 02:14:01;;;;;;;4.20;3.83;;;11.00;1.00;;;;;;5090933;28;20205;-78
2021/10/09 02:17:04;;;;;;;4.57;3.73;;;11.00;1.00;;;;;;5091142;28;20204;-80
2021/10/09 02:25:13;;;;;;;7.27;3.53;;;10.90;1.00;;;;;;5090551;28;20208;-76
2021/10/09 02:27:41;;;;;;;4.07;3.63;;;10.80;1.00;;;;;;5084317;28;20216;-78
2021/10/09 02:30:10;;;;;;;4.83;3.73;;;10.70;1.00;;;;;;5082680;28;20274;-77
2021/10/09 02:32:37;;;;;;;4.30;3.73;;;10.70;1.00;;;;;;5090053;28;20254;-76
2021/10/09 02:35:05;;;;;;;7.30;3.67;;;10.70;1.00;;;;;;5090026;28;20201;-78
2021/10/09 02:37:32;;;;;;;5.50;3.67;;;10.70;1.00;;;;;;5090263;28;20205;-79
2021/10/09 02:39:59;;;;;;;3.53;3.23;;;10.60;1.00;;;;;;5090931;28;20214;-79
2021/10/09 02:42:26;;;;;;;5.03;4.03;;;10.60;1.00;;;;;;5090323;28;20262;-78
2021/10/09 02:44:53;;;;;;;8.80;4.43;;;10.60;1.00;;;;;;5090566;28;20205;-79
2021/10/09 02:47:21;;;;;;;3.97;3.57;;;10.60;1.00;;;;;;5089504;28;20209;-77
2021/10/09 02:49:48;;;;;;;4.57;3.40;;;10.60;1.00;;;;;;5090315;28;20611;-80
2021/10/09 02:52:15;;;;;;;4.27;3.57;;;10.60;1.00;;;;;;5090094;28;20209;-79
2021/10/09 02:54:42;;;;;;;5.13;3.27;;;10.60;1.00;;;;;;5090266;28;20255;-77
2021/10/09 02:57:09;;;;;;;4.70;4.30;;;10.60;1.00;;;;;;5089954;28;20201;-80
2021/10/09 02:59:36;;;;;;;5.13;4.10;;;10.50;1.00;;;;;;5090418;28;20250;-76
2021/10/09 03:02:03;;;;;;;5.83;4.23;;;10.50;1.00;;;;;;5092034;28;20258;-77
2021/10/09 03:04:31;;;;;;;4.67;4.27;;;10.40;1.00;;;;;;5094282;28;20209;-76
2021/10/09 03:06:58;;;;;;;6.13;4.50;;;10.40;1.00;;;;;;5094310;28;20197;-77
2021/10/09 03:09:25;;;;;;;7.10;4.40;;;10.40;1.00;;;;;;5094795;28;20279;-79
2021/10/09 03:11:52;;;;;;;7.20;4.90;;;10.40;1.00;;;;;;5095588;28;20205;-79
2021/10/09 03:14:19;;;;;;;6.63;4.13;;;10.40;1.00;;;;;;5094892;28;20540;-78
2021/10/09 03:16:46;;;;;;;4.63;4.03;;;10.30;1.00;;;;;;5093772;28;20251;-78
2021/10/09 03:19:13;;;;;;;5.13;3.90;;;10.40;1.00;;;;;;5093691;28;20238;-78
2021/10/09 03:21:42;;;;;;;5.13;4.03;;;10.40;1.00;;;;;;5093967;28;20624;-78
2021/10/09 03:24:09;;;;;;;5.50;4.27;;;10.40;1.00;;;;;;5093035;28;20210;-78
2021/10/09 03:26:36;;;;;;;4.70;3.37;;;10.30;1.00;;;;;;5093727;28;20205;-78
2021/10/09 03:29:03;;;;;;;6.27;4.37;;;10.30;1.00;;;;;;5092823;28;20282;-78
2021/10/09 03:31:30;;;;;;;3.87;3.47;;;10.30;1.00;;;;;;5093368;28;20254;-78
2021/10/09 03:33:57;;;;;;;4.40;4.00;;;10.30;1.00;;;;;;5093850;28;20209;-78
2021/10/09 03:36:24;;;;;;;5.90;4.50;;;10.30;1.00;;;;;;5093639;28;20205;-77
2021/10/09 03:38:53;;;;;;;5.57;4.63;;;10.20;1.00;;;;;;5093414;28;20209;-75
2021/10/09 03:41:20;;;;;;;4.30;3.57;;;10.20;1.00;;;;;;5093032;28;20306;-76
2021/10/09 03:43:46;;;;;;;4.73;3.87;;;10.20;1.00;;;;;;5093368;28;20205;-77
2021/10/09 03:46:16;;;;;;;4.40;4.00;;;10.20;1.00;;;;;;5092615;28;20205;-75
2021/10/09 03:48:57;;;;;;;7.13;4.87;;;10.20;1.00;;;;;;5093340;28;20209;-75
2021/10/09 03:54:10;;;;;;;4.83;4.37;;;10.20;1.00;;;;;;5092497;28;20208;-75
2021/10/09 03:56:37;;;;;;;5.23;4.30;;;10.20;1.00;;;;;;5093385;28;20259;-77
2021/10/09 03:59:05;;;;;;;4.90;4.07;;;10.20;1.00;;;;;;5092644;28;20278;-78
2021/10/09 04:01:32;;;;;;;4.60;4.20;;;10.10;1.00;;;;;;5092797;28;20292;-75
2021/10/09 04:03:59;;;;;;;6.53;4.07;;;10.10;1.00;;;;;;5093001;28;20208;-75
2021/10/09 04:06:26;;;;;;;5.87;4.50;;;10.00;1.00;;;;;;5093065;28;20206;-77
2021/10/09 04:08:53;;;;;;;5.00;4.50;;;10.00;1.00;;;;;;5092783;28;20233;-74
2021/10/09 04:11:21;;;;;;;6.60;4.50;;;9.80;1.00;;;;;;5092552;28;20631;-76
2021/10/09 04:13:48;;;;;;;5.13;4.47;;;9.80;1.00;;;;;;5091337;28;20205;-77
2021/10/09 04:16:15;;;;;;;6.37;3.77;;;9.90;1.00;;;;;;5092296;28;20205;-76
2021/10/09 04:18:42;;;;;;;4.90;4.37;;;9.90;1.00;;;;;;5092483;28;20206;-77
2021/10/09 04:21:09;;;;;;;4.90;4.40;;;9.90;1.00;;;;;;5092009;28;20677;-78
2021/10/09 04:23:36;;;;;;;4.47;4.07;;;9.90;1.00;;;;;;5092533;28;20209;-77
2021/10/09 04:26:04;;;;;;;5.33;4.30;;;9.80;1.00;;;;;;5092151;28;20206;-77
2021/10/09 04:28:34;;;;;;;4.90;4.40;;;9.80;1.00;;;;;;5092326;28;20297;-76
2021/10/09 04:31:01;;;;;;;5.50;4.37;;;9.90;1.00;;;;;;5091732;28;20654;-75
2021/10/09 04:33:30;;;;;;;8.40;4.17;;;10.00;1.00;;;;;;5092507;28;20665;-76
2021/10/09 04:35:57;;;;;;;4.77;4.23;;;9.90;1.00;;;;;;5092587;28;20214;-77
2021/10/09 04:38:24;;;;;;;7.00;4.33;;;10.10;1.00;;;;;;5091885;28;20206;-77
2021/10/09 04:40:51;;;;;;;5.53;4.17;;;10.10;1.00;;;;;;5091767;28;20733;-76
2021/10/09 04:43:18;;;;;;;6.57;4.17;;;10.20;1.00;;;;;;5091747;28;20617;-76
2021/10/09 04:45:46;;;;;;;7.47;4.87;;;10.20;1.00;;;;;;5091884;28;20210;-76
2021/10/09 04:48:13;;;;;;;4.77;4.00;;;10.00;1.00;;;;;;5091518;28;20206;-77
2021/10/09 04:50:40;;;;;;;7.33;5.67;;;10.10;1.00;;;;;;5092127;28;20237;-77
2021/10/09 04:53:07;;;;;;;6.70;4.90;;;10.20;1.00;;;;;;5091706;28;20209;-77
2021/10/09 04:55:34;;;;;;;7.47;5.13;;;10.30;1.00;;;;;;5091948;28;20205;-76
2021/10/09 04:58:01;;;;;;;4.53;4.13;;;10.50;1.00;;;;;;5091221;28;20247;-77
2021/10/09 05:00:28;;;;;;;6.97;5.57;;;10.70;1.00;;;;;;5092039;28;20605;-77
2021/10/09 05:02:56;;;;;;;6.20;4.70;;;10.70;1.00;;;;;;5091722;28;20205;-76
2021/10/09 05:05:23;;;;;;;6.97;4.07;;;10.80;1.00;;;;;;5091678;28;20202;-77
2021/10/09 05:07:50;;;;;;;7.37;4.03;;;10.90;1.00;;;;;;5091609;28;20254;-77
2021/10/09 05:10:17;;;;;;;5.13;4.53;;;10.90;1.00;;;;;;5091300;28;20270;-77
2021/10/09 05:12:44;;;;;;;5.97;4.73;;;11.00;1.00;;;;;;5091555;28;20271;-77
2021/10/09 05:15:11;;;;;;;5.20;3.93;;;11.00;1.00;;;;;;5091355;28;20206;-77
2021/10/09 05:17:39;;;;;;;4.80;4.10;;;10.90;1.00;;;;;;5091256;28;20201;-77
2021/10/09 05:20:08;;;;;;;4.33;3.93;;;10.80;1.00;;;;;;5091750;28;20206;-77
2021/10/09 05:22:35;;;;;;;4.67;3.17;;;11.00;1.00;;;;;;5081134;28;20245;-75
2021/10/09 05:25:03;;;;;;;5.00;4.40;;;11.10;1.00;;;;;;5093786;28;20221;-76
2021/10/09 05:27:30;;;;;;;4.23;3.33;;;11.00;1.00;;;;;;5090868;28;20255;-77
2021/10/09 05:30:03;;;;;;;5.53;3.77;;;11.00;1.00;;;;;;5091361;28;20650;-77
2021/10/09 05:32:32;;;;;;;4.57;3.57;;;11.10;1.00;;;;;;5091007;28;20252;-76
2021/10/09 05:34:59;;;;;;;4.78;3.80;;;11.00;1.00;;;;;;5091558;28;20212;-77
2021/10/09 05:37:28;;;;;;;5.83;3.63;;;11.10;1.00;;;;;;5091299;28;20669;-76
2021/10/09 05:39:55;;;;;;;5.93;4.03;;;11.20;1.00;;;;;;5091272;28;20209;-76
2021/10/09 05:42:22;;;;;;;6.63;4.03;;;11.10;1.00;;;;;;5090781;28;20636;-72
2021/10/09 05:44:50;;;;;;;7.63;4.87;;;11.20;1.00;;;;;;5091005;28;20290;-76
2021/10/09 05:47:17;;;;;;;6.53;4.13;;;11.10;1.00;;;;;;5091240;28;20211;-77
2021/10/09 05:49:44;;;;;;;5.60;4.93;;;11.20;1.00;;;;;;5090135;28;20229;-82
2021/10/09 05:52:16;;;;;;;6.03;5.40;;;11.20;1.00;;;;;;5090721;28;20201;-78
2021/10/09 05:54:50;;;;;;;5.27;4.77;;;11.30;1.00;;;;;;5082243;28;20673;-77
2021/10/09 05:57:26;;;;;;;4.90;4.40;;;11.20;1.00;;;;;;5083552;28;20206;-77
2021/10/09 07:00:19;;;;;;;4.93;4.30;;;12.20;1.00;;;;;;5078980;28;20281;-78
2021/10/09 07:02:46;;;;;;;6.10;4.72;;;12.30;1.00;;;;;;5094094;28;20205;-77
2021/10/09 07:05:14;;;;;;;5.33;4.83;;;12.40;1.00;;;;;;5079924;28;20201;-78
2021/10/09 07:07:43;;;;;;;8.95;5.15;;;12.40;1.00;;;;;;5093684;28;20209;-80
2021/10/09 07:10:11;;;;;;;4.75;4.35;;;12.50;1.00;;;;;;5093711;28;20236;-81
2021/10/09 07:12:38;;;;;;;5.00;4.55;;;12.50;1.00;;;;;;5094000;28;20201;-81
2021/10/09 07:15:07;;;;;;;7.90;5.47;;;12.60;1.00;;;;;;5093978;28;20205;-78
2021/10/09 07:17:36;;;;;;;6.90;5.72;;;12.60;1.00;;;;;;5093881;28;20205;-80
2021/10/09 07:20:06;;;;;;;6.15;5.43;;;12.70;1.00;;;;;;5093771;28;20218;-80
2021/10/09 07:22:34;;;;;;;6.20;5.60;;;12.80;1.00;;;;;;5093142;28;20580;-81
2021/10/09 07:25:01;;;;;;;7.47;6.72;;;12.80;1.00;;;;;;5093980;28;20296;-81
2021/10/09 07:27:28;;;;;;;9.30;7.50;;;12.80;1.00;;;;;;5087462;28;20261;-77
2021/10/09 07:29:55;;;;;;;7.22;6.45;;;12.90;1.00;;;;;;5075264;28;20327;-82
2021/10/09 07:32:23;;;;;;;6.05;5.45;;;13.00;1.00;;;;;;5093596;28;20680;-79
2021/10/09 07:34:51;;;;;;;6.90;5.35;;;13.00;1.00;;;;;;5080901;28;20241;-83
2021/10/09 07:37:18;;;;;;;8.02;4.43;;;13.10;1.00;;;;;;5079022;28;20267;-83
2021/10/09 07:39:45;;;;;;;4.25;3.85;;;13.20;1.00;;;;;;5079945;28;20263;-79
2021/10/09 07:42:12;;;;;;;4.15;3.75;;;13.30;1.00;;;;;;5077600;28;20590;-78
2021/10/09 07:44:39;;;;;;;5.32;4.82;;;13.30;1.00;;;;;;5077282;28;20247;-79
2021/10/09 07:47:08;;;;;;;5.20;3.95;;;13.40;1.00;;;;;;5077700;28;20206;-78
2021/10/09 07:49:36;;;;;;;4.88;3.15;;;13.40;1.00;;;;;;5080735;28;20201;-78
2021/10/09 07:52:05;;;;;;;7.88;5.68;;;13.50;1.00;;;;;;5077725;28;20362;-84
2021/10/09 07:54:32;;;;;;;4.35;3.80;;;13.60;1.00;;;;;;5080414;28;20255;-79
2021/10/09 07:56:59;;;;;;;4.93;4.15;;;13.70;1.00;;;;;;5077995;28;20263;-80
2021/10/09 07:59:26;;;;;;;6.03;4.43;;;13.80;1.00;;;;;;5071711;28;20207;-81
2021/10/09 08:01:53;;;;;;;4.80;3.95;;;13.90;1.00;;;;;;5092458;28;20213;-83
2021/10/09 08:04:20;;;;;;;7.82;5.25;;;14.00;1.00;;;;;;5092846;28;20742;-83
2021/10/09 08:06:47;;;;;;;5.68;4.57;;;14.10;1.00;;;;;;5092234;28;20282;-80
2021/10/09 08:09:15;;;;;;;5.78;5.28;;;14.20;1.00;;;;;;5092822;28;20577;-76
2021/10/09 08:11:43;;;;;;;11.60;4.72;;;14.30;1.00;;;;;;5077913;28;20763;-72
2021/10/09 08:14:10;;;;;;;5.47;4.72;;;14.50;1.00;;;;;;5092126;28;20929;-78
2021/10/09 08:16:37;;;;;;;4.50;3.88;;;14.60;1.00;;;;;;5092386;28;20214;-79
2021/10/09 08:19:04;;;;;;;3.75;3.22;;;14.70;1.00;;;;;;5092491;28;20205;-76
2021/10/09 08:21:33;;;;;;;4.70;3.67;;;14.70;1.00;;;;;;5092382;28;20213;-80
2021/10/09 08:24:06;;;;;;;3.50;3.20;;;14.70;1.00;;;;;;5092450;28;20206;-79
2021/10/09 08:27:01;;;;;;;4.40;3.58;;;14.70;1.00;;;;;;5092366;28;20201;-77
2021/10/09 08:40:26;;;;;;;3.70;3.38;;;15.10;1.00;;;;;;5092810;28;20242;-80
2021/10/09 08:42:55;;;;;;;3.85;3.53;;;15.30;1.00;;;;;;5091482;28;20727;-74
2021/10/09 08:45:22;;;;;;;4.32;3.90;;;15.40;1.00;;;;;;5092193;28;20202;-79
2021/10/09 08:47:49;;;;;;;4.28;3.35;;;15.40;99.90;;;;;;5091592;28;20255;-74
2021/10/09 08:50:16;;;;;;;4.15;3.75;;;15.40;99.90;;;;;;5092415;28;20276;-79
2021/10/09 08:52:58;;;;;;;3.60;3.30;;;15.50;99.90;;;;;;5091506;28;20648;-77
2021/10/09 08:55:26;;;;;;;3.88;3.25;;;15.60;99.90;;;;;;5092203;28;20198;-76
2021/10/09 08:57:59;;;;;;;3.80;3.38;;;15.90;99.90;;;;;;5091122;28;20201;-76
2021/10/09 09:01:01;;;;;;;3.25;2.72;;;15.90;99.90;;;;;;5074922;28;20655;-74
2021/10/09 09:04:12;;;;;;;3.78;3.17;;;15.90;99.90;;;;;;5071615;28;20228;-81
2021/10/09 09:26:48;;;;;;;3.03;2.72;;;16.60;99.90;;;;;;5097416;28;20270;-76
2021/10/09 09:35:21;;;;;;;4.32;3.35;;;16.60;99.90;;;;;;5076507;28;20362;-77
2021/10/09 09:40:40;;;;;;;2.60;2.40;;;16.60;99.90;;;;;;5059176;28;20202;-79
2021/10/09 09:43:08;;;;;;;3.13;2.83;;;16.80;99.90;;;;;;5101746;28;20262;-78
2021/10/09 09:45:37;;;;;;;6.05;3.10;;;17.00;99.90;;;;;;5087914;28;20209;-77
2021/10/09 09:48:06;;;;;;;4.65;4.20;;;17.10;99.90;;;;;;5093266;28;20665;-77
2021/10/09 09:50:35;;;;;;;3.67;2.78;;;17.20;99.90;;;;;;5086189;28;20275;-78
2021/10/09 09:53:03;;;;;;;3.10;2.80;;;17.20;99.90;;;;;;5093732;28;20577;-76
2021/10/09 09:55:31;;;;;;;5.03;2.97;;;17.20;99.90;;;;;;5085260;28;20669;-72
2021/10/09 09:58:01;;;;;;;3.60;3.30;;;17.20;99.90;;;;;;5095609;28;20201;-73
2021/10/09 10:00:33;;;;;;;5.05;3.05;;;17.60;99.90;;;;;;5094453;28;20241;-76
2021/10/09 10:03:04;;;;;;;7.10;3.30;;;17.60;99.90;;;;;;5108090;28;20234;-74
2021/10/09 10:05:31;;;;;;;6.40;2.78;;;17.50;99.90;;;;;;5106021;28;20237;-79
2021/10/09 10:07:58;;;;;;;3.45;3.10;;;17.70;99.90;;;;;;5106912;28;20253;-73
2021/10/09 10:10:25;;;;;;;5.60;3.42;;;17.70;99.90;;;;;;5101597;28;20209;-75
2021/10/09 10:12:57;;;;;;;2.58;2.20;;;17.90;99.90;;;;;;5090748;28;20202;-76
2021/10/09 10:15:30;;;;;;;3.63;2.90;;;17.90;99.90;;;;;;5089412;28;20259;-76
2021/10/09 10:17:58;;;;;;;4.40;2.70;;;17.90;99.90;;;;;;5087831;28;20248;-76
2021/10/09 10:20:47;;;;;;;3.28;2.85;;;17.90;99.90;;;;;;5087754;28;20212;-73
2021/10/09 10:23:33;;;;;;;3.45;3.15;;;17.80;99.90;;;;;;5075955;28;20202;-78
2021/10/09 10:26:24;;;;;;;3.33;3.03;;;17.90;99.90;;;;;;5075389;28;20201;-75
2021/10/09 10:29:23;;;;;;;3.28;2.83;;;18.00;99.90;;;;;;5076713;28;20297;-75
2021/10/09 10:32:15;;;;;;;2.67;2.47;;;18.10;99.90;;;;;;5074553;28;20241;-79
2021/10/09 10:34:46;;;;;;;2.80;2.60;;;18.30;99.90;;;;;;5062932;28;20206;-76
2021/10/09 10:37:36;;;;;;;3.33;2.90;;;17.90;99.90;;;;;;5075104;28;20287;-75
2021/10/09 10:40:05;;;;;;;5.40;2.85;;;18.20;99.90;;;;;;5074811;28;20661;-78
2021/10/09 10:42:32;;;;;;;3.22;2.95;;;18.50;99.90;;;;;;5076424;28;21049;-76
2021/10/09 10:45:14;;;;;;;4.57;2.60;;;18.60;99.90;;;;;;5074959;28;20202;-75
2021/10/09 10:47:45;;;;;;;3.67;3.20;;;18.60;99.90;;;;;;5076156;28;20680;-74
2021/10/09 10:54:16;;;;;;;3.67;2.53;;;18.20;99.90;;;;;;5071983;28;20208;-77
2021/10/09 10:57:19;;;;;;;3.13;2.80;;;18.50;99.90;;;;;;5067996;28;20211;-78
2021/10/09 10:59:52;;;;;;;2.97;2.35;;;18.70;99.90;;;;;;5090226;28;20296;-79
2021/10/09 11:02:21;;;;;;;3.45;2.45;;;18.60;99.90;;;;;;5092983;28;20213;-83
2021/10/09 11:04:49;;;;;;;3.35;2.85;;;18.80;99.90;;;;;;5092315;28;20296;-80
2021/10/09 11:07:17;;;;;;;2.20;2.00;;;18.70;99.90;;;;;;5092793;28;20381;-82
2021/10/09 11:09:45;;;;;;;3.58;2.30;;;18.80;99.90;;;;;;5092248;28;20205;-81
2021/10/09 11:12:25;;;;;;;2.78;2.58;;;18.70;99.90;;;;;;5092200;28;20233;-83
2021/10/09 11:15:01;;;;;;;4.63;2.40;;;18.60;99.90;;;;;;5082408;28;20201;-83
2021/10/09 11:17:34;;;;;;;4.15;2.55;;;18.60;99.90;;;;;;5073803;28;20201;-81
2021/10/09 11:20:01;;;;;;;3.17;2.80;;;18.70;99.90;;;;;;5068680;28;20198;-78
2021/10/09 11:22:39;;;;;;;2.50;2.20;;;18.60;99.90;;;;;;5072612;28;20209;-82
2021/10/09 11:25:07;;;;;;;3.90;2.80;;;18.50;99.90;;;;;;5076324;28;20284;-76
2021/10/09 11:27:37;;;;;;;4.88;2.72;;;18.40;99.90;;;;;;5082467;28;20206;-82
2021/10/09 11:30:08;;;;;;;6.85;2.70;;;18.40;99.90;;;;;;5069173;28;20198;-82
2021/10/09 11:32:36;;;;;;;3.08;2.78;;;18.50;99.90;;;;;;5080646;28;20351;-80
2021/10/09 11:35:04;;;;;;;5.65;2.85;;;18.30;99.90;;;;;;5066450;28;20732;-78
2021/10/09 11:37:31;;;;;;;4.75;2.83;;;18.20;99.90;;;;;;5078174;28;20209;-79
2021/10/09 11:40:00;;;;;;;7.45;2.67;;;18.20;99.90;;;;;;5076854;28;20202;-73
2021/10/09 11:42:29;;;;;;;5.07;3.55;;;18.30;99.90;;;;;;5077940;28;20217;-77
2021/10/09 11:45:17;;;;;;;4.97;3.40;;;18.40;99.90;;;;;;5076623;28;20583;-86
2021/10/09 11:53:46;;;;;;;2.65;2.45;;;18.60;99.90;;;;;;5036933;28;20603;-79
2021/10/09 11:56:14;;;;;;;3.20;2.90;;;18.60;99.90;;;;;;5076586;28;20209;-84
2021/10/09 11:58:47;;;;;;;3.75;2.83;;;18.70;99.90;;;;;;5074152;28;20208;-84
2021/10/09 12:01:46;;;;;;;8.98;3.30;;;18.80;99.90;;;;;;5087121;28;20218;-83
2021/10/09 12:04:16;;;;;;;4.05;3.38;;;18.70;99.90;;;;;;5091878;28;20296;-80
2021/10/09 12:06:45;;;;;;;5.40;3.63;;;18.90;99.90;;;;;;5084160;28;20202;-73
2021/10/09 12:09:14;;;;;;;4.95;3.28;;;18.80;99.90;;;;;;5070051;28;20688;-73
2021/10/09 12:11:41;;;;;;;4.28;2.78;;;19.10;99.90;;;;;;5071531;28;20222;-76
2021/10/09 12:14:10;;;;;;;5.82;3.08;;;18.90;99.90;;;;;;5071703;28;20259;-76
2021/10/09 12:16:39;;;;;;;6.78;3.40;;;18.80;99.90;;;;;;5070984;28;20305;-82
2021/10/09 12:19:09;;;;;;;4.90;2.90;;;18.70;99.90;;;;;;5070928;28;20206;-72
2021/10/09 12:21:37;;;;;;;6.15;2.42;;;18.90;99.90;;;;;;5072724;28;20666;-83
2021/10/09 12:24:15;;;;;;;5.53;3.63;;;19.00;99.90;;;;;;5070123;28;20204;-80
2021/10/09 12:26:43;;;;;;;3.88;2.75;;;19.10;99.90;;;;;;5071782;28;20206;-72
2021/10/09 12:29:17;;;;;;;4.32;2.33;;;19.00;99.90;;;;;;5073257;28;20202;-83
2021/10/09 12:31:46;;;;;;;3.17;2.72;;;19.10;99.90;;;;;;5071105;28;20257;-83
2021/10/09 12:34:33;;;;;;;3.38;3.08;;;19.20;99.90;;;;;;5071546;28;20251;-83
2021/10/09 12:37:12;;;;;;;3.97;2.97;;;19.40;99.90;;;;;;5070848;28;20197;-84
2021/10/09 12:39:39;;;;;;;8.25;3.28;;;19.10;99.90;;;;;;5070307;28;20210;-83
2021/10/09 12:42:06;;;;;;;4.65;3.28;;;18.80;99.90;;;;;;5072381;28;20731;-84
2021/10/09 12:44:33;;;;;;;5.57;3.38;;;18.60;99.90;;;;;;5073221;28;20559;-84
2021/10/09 12:47:00;;;;;;;5.80;3.22;;;18.40;99.90;;;;;;5071550;28;20256;-77
2021/10/09 12:49:27;;;;;;;5.65;2.70;;;18.40;99.90;;;;;;5072063;28;20300;-78
2021/10/09 12:51:55;;;;;;;4.78;3.25;;;18.10;99.90;;;;;;5080544;28;20232;-84
2021/10/09 12:54:25;;;;;;;4.30;3.05;;;17.90;99.90;;;;;;5086172;28;20206;-83
2021/10/09 12:56:52;;;;;;;4.05;2.97;;;17.90;99.90;;;;;;5088254;28;20209;-75
2021/10/09 12:59:19;;;;;;;5.53;3.33;;;17.80;99.90;;;;;;5086137;28;20210;-80
2021/10/09 13:01:46;;;;;;;3.28;2.55;;;17.70;99.90;;;;;;5090302;28;20634;-83
2021/10/09 13:04:13;;;;;;;4.55;3.42;;;17.70;99.90;;;;;;5091191;28;20262;-83
2021/10/09 13:06:40;;;;;;;3.35;2.40;;;17.60;99.90;;;;;;5090382;28;20209;-83
2021/10/09 13:09:09;;;;;;;3.83;2.92;;;17.60;99.90;;;;;;5090614;28;20198;-79
2021/10/09 13:11:46;;;;;;;5.07;3.45;;;17.70;99.90;;;;;;5090336;28;20225;-80
2021/10/09 13:14:13;;;;;;;2.90;2.63;;;17.60;99.90;;;;;;5090511;28;20744;-81
2021/10/09 13:16:40;;;;;;;3.30;3.00;;;17.70;99.90;;;;;;5083957;28;20665;-80
2021/10/09 13:19:07;;;;;;;4.97;3.90;;;17.90;99.90;;;;;;5071318;28;20252;-80
2021/10/09 13:21:34;;;;;;;7.70;3.15;;;18.00;99.90;;;;;;5060481;28;20302;-78
2021/10/09 13:24:01;;;;;;;3.70;3.03;;;18.20;99.90;;;;;;5068708;28;20199;-78
2021/10/09 13:26:31;;;;;;;3.47;3.17;;;18.10;99.90;;;;;;5071181;28;20585;-80
2021/10/09 13:28:58;;;;;;;3.03;2.78;;;18.00;99.90;;;;;;5073174;28;20221;-80
2021/10/09 13:31:25;;;;;;;3.88;2.30;;;17.90;99.90;;;;;;5090844;28;20214;-79
2021/10/09 13:33:53;;;;;;;6.35;3.50;;;17.80;99.90;;;;;;5089438;28;20205;-80
2021/10/09 13:36:21;;;;;;;5.82;3.10;;;17.90;99.90;;;;;;5090189;28;20273;-79
2021/10/09 13:38:48;;;;;;;7.10;2.88;;;18.00;99.90;;;;;;5089920;28;20205;-78
2021/10/09 13:41:15;;;;;;;4.20;2.80;;;18.10;99.90;;;;;;5061947;28;20623;-79
2021/10/09 13:43:44;;;;;;;4.13;2.50;;;18.00;99.90;;;;;;5089765;28;20258;-80
2021/10/09 13:46:13;;;;;;;4.30;3.67;;;17.90;99.90;;;;;;5089741;28;20657;-80
2021/10/09 13:48:41;;;;;;;5.47;2.60;;;17.90;99.90;;;;;;5090142;28;20357;-79
2021/10/09 13:51:12;;;;;;;4.38;3.20;;;17.80;99.90;;;;;;5089162;28;20278;-78
2021/10/09 13:53:39;;;;;;;9.25;3.22;;;17.80;99.90;;;;;;5089618;28;20205;-77
2021/10/09 13:56:06;;;;;;;5.22;3.00;;;17.90;99.90;;;;;;5089915;28;20210;-79
2021/10/09 13:58:33;;;;;;;3.10;2.78;;;17.80;99.90;;;;;;5092802;28;20205;-78
2021/10/09 14:01:02;;;;;;;3.22;2.78;;;17.80;99.90;;;;;;5093546;28;20633;-78
2021/10/09 14:03:30;;;;;;;3.13;2.75;;;17.70;99.90;;;;;;5093877;28;20214;-79
2021/10/09 14:05:58;;;;;;;3.95;3.55;;;17.80;99.90;;;;;;5094589;28;20240;-79
2021/10/09 14:08:25;;;;;;;4.00;2.80;;;17.80;99.90;;;;;;5093660;28;20209;-79
2021/10/09 14:10:53;;;;;;;2.20;2.00;;;17.90;99.90;;;;;;5093424;28;20213;-78
2021/10/09 14:13:21;;;;;;;4.47;2.90;;;17.90;99.90;;;;;;5093916;28;20654;-79
2021/10/09 14:15:48;;;;;;;2.45;2.25;;;17.80;99.90;;;;;;5093932;28;20241;-79
2021/10/09 14:18:17;;;;;;;2.45;1.60;;;17.80;99.90;;;;;;5093752;28;20205;-78
2021/10/09 14:20:44;;;;;;;3.80;2.08;;;17.80;99.90;;;;;;5093214;28;20285;-79
2021/10/09 14:23:11;;;;;;;4.07;1.95;;;17.80;99.90;;;;;;5093030;28;20288;-78
2021/10/09 14:25:38;;;;;;;3.85;2.25;;;17.90;99.90;;;;;;5092923;28;20554;-79
2021/10/09 14:28:06;;;;;;;2.28;2.10;;;17.80;99.90;;;;;;5081454;28;20256;-79
2021/10/09 14:30:33;;;;;;;4.32;2.00;;;17.90;99.90;;;;;;5084991;28;20212;-78
2021/10/09 14:33:00;;;;;;;2.20;1.80;;;17.80;99.90;;;;;;5093249;28;20657;-76
2021/10/09 14:35:29;;;;;;;2.95;2.15;;;17.80;99.90;;;;;;5093225;28;20631;-79
2021/10/09 14:37:56;;;;;;;2.20;2.00;;;17.80;99.90;;;;;;5093872;28;20213;-79
2021/10/09 14:40:23;;;;;;;2.38;1.90;;;17.70;99.90;;;;;;5093661;28;20214;-80
2021/10/09 14:42:50;;;;;;;2.75;2.03;;;17.70;99.90;;;;;;5078853;28;20235;-77
2021/10/09 14:45:19;;;;;;;5.10;1.77;;;17.70;99.90;;;;;;5093376;28;20202;-80
2021/10/09 14:47:52;;;;;;;2.97;2.50;;;17.60;99.90;;;;;;5093168;28;20201;-79
2021/10/09 14:50:27;;;;;;;3.60;2.10;;;17.60;99.90;;;;;;5093051;28;20729;-80
2021/10/09 15:02:02;;;;;;;2.38;2.00;;;17.60;99.90;;;;;;5085415;28;20220;-79
2021/10/09 15:18:22;;;;;;;5.35;2.75;;;17.50;99.90;;;;;;5092902;28;20204;-80
2021/10/09 15:20:49;;;;;;;2.60;1.95;;;17.50;99.90;;;;;;5092472;28;20258;-79
2021/10/09 15:23:16;;;;;;;3.38;2.15;;;17.40;99.90;;;;;;5092504;28;20205;-79
2021/10/09 15:25:46;;;;;;;2.70;2.28;;;17.40;99.90;;;;;;5091696;28;20205;-79